createdAt,value
2023-04-09T00:02:15.846Z,1.58
2023-04-09T00:04:42.519Z,1.60
2023-04-09T00:07:09.278Z,1.90
2023-04-09T00:09:35.834Z,1.73
2023-04-09T00:12:03.327Z,1.65
2023-04-09T00:14:29.996Z,1.60
2023-04-09T00:16:56.647Z,2.00
2023-04-09T00:19:23.229Z,1.58
2023-04-09T00:21:50.010Z,1.73
2023-04-09T00:24:16.623Z,1.60
2023-04-09T00:26:43.264Z,1.60
2023-04-09T00:29:09.922Z,1.80
2023-04-09T00:31:36.621Z,2.08
2023-04-09T00:34:03.276Z,1.60
2023-04-09T00:36:29.822Z,1.48
2023-04-09T00:38:56.701Z,1.73
2023-04-09T00:41:23.299Z,1.60
2023-04-09T00:43:49.870Z,1.80
2023-04-09T00:46:17.930Z,1.60
2023-04-09T00:48:45.014Z,2.05
2023-04-09T00:51:11.629Z,2.10
2023-04-09T00:53:38.408Z,1.83
2023-04-09T00:56:06.027Z,1.92
2023-04-09T00:58:32.624Z,1.77
2023-04-09T01:00:59.524Z,1.80
2023-04-09T01:03:26.312Z,1.50
2023-04-09T01:06:11.607Z,1.80
2023-04-09T01:09:07.137Z,1.67
2023-04-09T01:11:56.782Z,1.70
2023-04-09T01:14:41.168Z,1.65
2023-04-09T01:17:16.941Z,1.75
2023-04-09T01:20:04.260Z,1.55
2023-04-09T01:22:56.860Z,1.80
2023-04-09T01:25:45.906Z,1.83
2023-04-09T01:28:16.841Z,1.80
2023-04-09T01:30:52.581Z,1.88
2023-04-09T01:33:21.854Z,1.95
2023-04-09T01:35:50.303Z,1.60
2023-04-09T01:38:19.693Z,1.70
2023-04-09T01:40:47.757Z,1.80
2023-04-09T01:43:15.344Z,1.90
2023-04-09T01:45:44.633Z,1.67
2023-04-09T01:48:13.401Z,1.80
2023-04-09T01:50:40.530Z,1.55
2023-04-09T01:53:07.777Z,1.80
2023-04-09T01:55:34.405Z,1.70
2023-04-09T01:58:01.040Z,1.70
2023-04-09T02:00:38.964Z,1.65
2023-04-09T02:03:23.205Z,1.63
2023-04-09T02:06:01.087Z,1.52
2023-04-09T02:08:29.302Z,2.20
2023-04-09T02:10:58.704Z,1.73
2023-04-09T02:13:27.170Z,1.80
2023-04-09T02:15:55.958Z,1.75
2023-04-09T02:18:28.605Z,1.75
2023-04-09T02:20:56.168Z,1.77
2023-04-09T02:23:23.213Z,1.88
2023-04-09T02:25:50.846Z,1.90
2023-04-09T02:28:17.529Z,1.75
2023-04-09T02:30:44.126Z,2.05
2023-04-09T02:33:11.017Z,2.20
2023-04-09T02:35:37.768Z,1.70
2023-04-09T02:38:04.525Z,1.80
2023-04-09T02:40:31.216Z,2.00
2023-04-09T02:42:58.321Z,1.65
2023-04-09T02:45:24.932Z,1.60
2023-04-09T02:47:51.586Z,1.70
2023-04-09T02:50:18.296Z,2.20
2023-04-09T02:52:47.458Z,2.28
2023-04-09T02:55:14.685Z,2.15
2023-04-09T02:57:41.601Z,2.05
2023-04-09T03:00:08.826Z,1.70
2023-04-09T03:02:35.572Z,1.92
2023-04-09T03:05:02.497Z,2.20
2023-04-09T03:07:29.059Z,1.80
2023-04-09T03:09:55.687Z,1.90
2023-04-09T03:12:22.233Z,1.77
2023-04-09T03:14:48.801Z,1.95
2023-04-09T03:17:15.600Z,1.90
2023-04-09T03:19:42.170Z,2.03
2023-04-09T03:22:08.718Z,1.92
2023-04-09T03:24:35.326Z,2.00
2023-04-09T03:27:02.322Z,2.20
2023-04-09T03:29:28.933Z,1.65
2023-04-09T03:31:55.611Z,1.90
2023-04-09T03:34:22.226Z,1.95
2023-04-09T03:36:48.829Z,1.88
2023-04-09T03:39:15.393Z,1.90
2023-04-09T03:41:42.014Z,1.98
2023-04-09T03:44:08.623Z,1.90
2023-04-09T03:46:35.393Z,2.00
2023-04-09T03:49:02.107Z,1.85
2023-04-09T03:51:28.868Z,2.10
2023-04-09T03:53:55.722Z,2.42
2023-04-09T03:56:22.339Z,1.50
2023-04-09T03:58:49.746Z,2.30
2023-04-09T04:01:16.502Z,2.22
2023-04-09T04:03:43.299Z,2.10
2023-04-09T04:06:10.186Z,2.25
2023-04-09T04:08:36.883Z,2.15
2023-04-09T04:11:04.954Z,1.88
2023-04-09T04:13:31.778Z,2.40
2023-04-09T04:15:58.453Z,2.00
2023-04-09T04:18:25.197Z,2.17
2023-04-09T04:20:51.753Z,2.25
2023-04-09T04:23:18.488Z,2.00
2023-04-09T04:25:45.040Z,1.95
2023-04-09T04:28:11.593Z,2.45
2023-04-09T04:30:40.817Z,2.20
2023-04-09T04:33:07.429Z,2.13
2023-04-09T04:35:34.075Z,2.00
2023-04-09T04:38:01.535Z,2.35
2023-04-09T04:40:28.293Z,2.00
2023-04-09T04:42:54.854Z,1.98
2023-04-09T04:45:21.381Z,1.95
2023-04-09T04:47:47.999Z,1.88
2023-04-09T04:50:14.732Z,2.25
2023-04-09T04:52:41.305Z,1.80
2023-04-09T04:55:08.352Z,2.20
2023-04-09T04:57:34.913Z,2.20
2023-04-09T05:03:26.047Z,2.47
2023-04-09T05:05:54.009Z,1.90
2023-04-09T05:08:20.640Z,2.10
2023-04-09T05:10:47.239Z,2.20
2023-04-09T05:13:13.864Z,2.20
2023-04-09T05:15:42.292Z,2.10
2023-04-09T05:18:09.111Z,2.35
2023-04-09T05:20:36.608Z,2.13
2023-04-09T05:23:03.243Z,2.28
2023-04-09T05:25:29.842Z,2.15
2023-04-09T05:27:56.492Z,2.05
2023-04-09T05:30:23.304Z,2.30
2023-04-09T05:32:49.944Z,2.15
2023-04-09T05:35:16.548Z,2.83
2023-04-09T05:37:43.185Z,2.08
2023-04-09T05:40:10.824Z,2.00
2023-04-09T05:42:37.868Z,2.25
2023-04-09T05:45:04.873Z,2.05
2023-04-09T05:47:31.460Z,2.42
2023-04-09T05:49:58.068Z,2.25
2023-04-09T05:52:24.743Z,2.03
2023-04-09T05:54:51.482Z,2.15
2023-04-09T05:57:18.034Z,2.33
2023-04-09T05:59:44.695Z,2.15
2023-04-09T06:02:11.337Z,2.38
2023-04-09T06:04:38.052Z,1.83
2023-04-09T06:07:04.672Z,2.00
2023-04-09T06:09:31.283Z,2.00
2023-04-09T06:11:57.943Z,2.10
2023-04-09T06:14:24.707Z,2.03
2023-04-09T06:16:51.256Z,2.03
2023-04-09T06:19:18.682Z,2.22
2023-04-09T06:21:45.300Z,1.88
2023-04-09T06:24:11.944Z,1.92
2023-04-09T06:26:38.512Z,1.98
2023-04-09T06:29:05.115Z,2.20
2023-04-09T06:31:31.845Z,2.10
2023-04-09T06:33:58.670Z,1.80
2023-04-09T06:36:26.585Z,2.30
2023-04-09T06:38:53.701Z,1.88
2023-04-09T06:41:23.729Z,1.88
2023-04-09T06:43:50.424Z,1.92
2023-04-09T06:46:20.259Z,1.88
2023-04-09T06:48:47.341Z,1.70
2023-04-09T06:51:14.842Z,1.80
2023-04-09T06:53:41.547Z,1.80
2023-04-09T06:56:08.637Z,2.22
2023-04-09T06:58:35.430Z,1.85
2023-04-09T07:01:02.396Z,1.85
2023-04-09T07:03:30.006Z,2.17
2023-04-09T07:05:57.615Z,2.30
2023-04-09T07:08:24.539Z,1.70
2023-04-09T07:10:51.141Z,1.80
2023-04-09T07:13:17.781Z,1.80
2023-04-09T07:15:44.427Z,1.90
2023-04-09T07:18:11.204Z,2.00
2023-04-09T07:20:37.833Z,2.22
2023-04-09T07:23:04.471Z,2.08
2023-04-09T07:25:31.164Z,2.10
2023-04-09T07:27:57.757Z,2.63
2023-04-09T07:30:24.485Z,2.47
2023-04-09T07:32:51.611Z,1.92
2023-04-09T07:35:18.747Z,2.53
2023-04-09T07:37:45.590Z,1.90
2023-04-09T07:40:12.482Z,1.70
2023-04-09T07:42:39.486Z,1.85
2023-04-09T07:45:06.962Z,1.83
2023-04-09T07:47:33.980Z,1.77
2023-04-09T07:50:00.714Z,2.22
2023-04-09T07:52:27.406Z,1.73
2023-04-09T07:54:54.035Z,1.90
2023-04-09T07:57:20.691Z,2.25
2023-04-09T07:59:47.472Z,1.75
2023-04-09T08:02:15.353Z,2.13
2023-04-09T08:04:42.587Z,1.88
2023-04-09T08:07:09.490Z,1.80
2023-04-09T08:09:36.323Z,2.28
2023-04-09T08:12:03.385Z,1.92
2023-04-09T08:14:30.358Z,1.75
2023-04-09T08:16:56.963Z,1.83
2023-04-09T08:19:23.653Z,1.73
2023-04-09T08:21:50.361Z,2.08
2023-04-09T08:24:17.306Z,1.90
2023-04-09T08:26:44.229Z,1.95
2023-04-09T08:29:12.840Z,1.80
2023-04-09T08:31:39.864Z,1.80
2023-04-09T08:34:06.752Z,2.08
2023-04-09T08:36:35.397Z,1.95
2023-04-09T08:39:03.037Z,1.80
2023-04-09T08:41:29.874Z,2.00
2023-04-09T08:43:59.271Z,1.70
2023-04-09T08:46:27.558Z,1.70
2023-04-09T08:48:55.067Z,1.90
2023-04-09T08:51:23.434Z,1.80
2023-04-09T08:53:56.967Z,1.73
2023-04-09T08:56:23.968Z,1.98
2023-04-09T08:58:51.624Z,1.60
2023-04-09T09:01:26.624Z,1.80
2023-04-09T09:04:08.213Z,1.95
2023-04-09T09:06:37.231Z,1.70
2023-04-09T09:09:17.333Z,1.88
2023-04-09T09:11:46.019Z,1.52
2023-04-09T09:14:18.382Z,1.88
2023-04-09T09:17:03.947Z,1.77
2023-04-09T09:19:33.570Z,1.88
2023-04-09T09:22:02.725Z,1.70
2023-04-09T09:24:30.605Z,1.80
2023-04-09T09:27:01.015Z,1.85
2023-04-09T09:29:28.598Z,1.80
2023-04-09T09:31:56.680Z,1.70
2023-04-09T09:34:24.580Z,2.40
2023-04-09T09:36:51.255Z,1.77
2023-04-09T09:39:18.092Z,1.83
2023-04-09T09:41:45.934Z,2.00
2023-04-09T09:44:32.123Z,1.85
2023-04-09T09:46:59.494Z,2.15
2023-04-09T09:49:26.230Z,1.80
2023-04-09T09:51:55.974Z,2.10
2023-04-09T09:54:25.416Z,2.58
2023-04-09T09:56:55.767Z,2.08
2023-04-09T09:59:31.879Z,2.00
2023-04-09T10:02:04.212Z,1.80
2023-04-09T10:04:35.175Z,2.00
2023-04-09T10:07:05.603Z,1.80
2023-04-09T10:09:34.363Z,2.00
2023-04-09T10:12:02.257Z,1.77
2023-04-09T10:14:29.352Z,1.90
2023-04-09T10:16:56.116Z,1.63
2023-04-09T10:19:23.801Z,1.77
2023-04-09T10:21:56.484Z,1.67
2023-04-09T10:24:23.527Z,2.00
2023-04-09T10:26:54.694Z,1.80
2023-04-09T10:29:28.376Z,2.43
2023-04-09T10:32:04.778Z,1.52
2023-04-09T10:34:35.604Z,1.80
2023-04-09T10:37:02.928Z,1.80
2023-04-09T10:39:33.291Z,1.80
2023-04-09T10:42:06.810Z,1.70
2023-04-09T10:44:35.700Z,1.92
2023-04-09T10:47:03.741Z,1.65
2023-04-09T10:49:37.408Z,1.90
2023-04-09T10:52:11.787Z,2.10
2023-04-09T10:54:46.321Z,2.00
2023-04-09T10:57:22.400Z,1.80
2023-04-09T10:59:51.711Z,1.50
2023-04-09T11:02:40.341Z,1.65
2023-04-09T11:05:40.509Z,1.77
2023-04-09T11:08:09.639Z,1.77
2023-04-09T11:10:38.034Z,1.75
2023-04-09T11:13:05.362Z,1.58
2023-04-09T11:15:34.723Z,1.60
2023-04-09T11:18:02.335Z,1.88
2023-04-09T11:20:31.023Z,1.60
2023-04-09T11:22:59.696Z,2.08
2023-04-09T11:25:28.442Z,1.80
2023-04-09T11:27:55.031Z,1.52
2023-04-09T11:30:21.728Z,1.70
2023-04-09T11:32:49.306Z,1.90
2023-04-09T11:35:17.852Z,1.40
2023-04-09T11:37:45.220Z,1.70
2023-04-09T11:40:20.246Z,1.80
2023-04-09T11:42:49.685Z,1.60
2023-04-09T11:45:17.553Z,1.65
2023-04-09T11:47:45.153Z,1.42
2023-04-09T11:50:13.202Z,1.67
2023-04-09T11:52:41.308Z,2.88
2023-04-09T11:55:11.584Z,1.77
2023-04-09T11:57:45.978Z,1.40
2023-04-09T12:00:17.401Z,1.88
2023-04-09T12:02:51.234Z,1.48
2023-04-09T12:05:26.427Z,1.58
2023-04-09T12:08:01.496Z,1.83
2023-04-09T12:10:29.978Z,1.45
2023-04-09T12:13:06.381Z,1.60
2023-04-09T12:15:35.341Z,1.75
2023-04-09T12:18:03.304Z,1.55
2023-04-09T12:20:32.060Z,1.65
2023-04-09T12:23:01.237Z,1.77
2023-04-09T12:25:28.217Z,1.70
2023-04-09T12:27:56.521Z,1.30
2023-04-09T12:30:24.183Z,1.50
2023-04-09T12:32:53.529Z,1.65
2023-04-09T12:35:21.378Z,1.60
2023-04-09T12:37:48.645Z,1.60
2023-04-09T12:40:15.911Z,1.65
2023-04-09T12:42:43.883Z,1.50
2023-04-09T12:45:12.476Z,1.73
2023-04-09T12:47:42.087Z,1.67
2023-04-09T12:50:10.212Z,1.58
2023-04-09T12:52:37.015Z,1.60
2023-04-09T12:55:04.885Z,1.70
2023-04-09T12:57:31.877Z,1.52
2023-04-09T12:59:58.899Z,1.30
2023-04-09T13:02:26.055Z,1.33
2023-04-09T13:04:53.050Z,1.75
2023-04-09T13:07:20.398Z,1.42
2023-04-09T13:09:48.841Z,1.50
2023-04-09T13:12:16.218Z,1.52
2023-04-09T13:14:46.636Z,1.45
2023-04-09T13:17:13.804Z,1.33
2023-04-09T13:19:42.603Z,1.58
2023-04-09T13:22:10.387Z,1.30
2023-04-09T13:24:37.650Z,1.30
2023-04-09T13:27:09.535Z,1.90
2023-04-09T13:29:36.661Z,1.70
2023-04-09T13:32:07.017Z,1.90
2023-04-09T13:34:35.020Z,1.73
2023-04-09T13:37:02.627Z,1.50
2023-04-09T13:39:29.374Z,1.50
2023-04-09T13:41:56.270Z,1.58
2023-04-09T13:44:24.454Z,1.35
2023-04-09T13:46:51.349Z,1.50
2023-04-09T13:49:18.188Z,1.63
2023-04-09T13:51:45.250Z,1.60
2023-04-09T13:54:11.923Z,1.50
2023-04-09T13:56:39.333Z,1.45
2023-04-09T13:59:06.359Z,1.55
2023-04-09T14:01:33.636Z,1.50
2023-04-09T14:04:00.633Z,1.38
2023-04-09T14:06:27.546Z,1.70
2023-04-09T14:08:54.554Z,1.40
2023-04-09T14:11:21.365Z,1.73
2023-04-09T14:13:48.403Z,1.60
2023-04-09T14:16:15.504Z,1.50
2023-04-09T14:18:42.211Z,1.50
2023-04-09T14:21:10.374Z,1.50
2023-04-09T14:23:38.622Z,1.30
2023-04-09T14:26:06.447Z,1.40
2023-04-09T14:28:33.179Z,1.55
2023-04-09T14:31:00.585Z,1.50
2023-04-09T14:33:27.343Z,1.48
2023-04-09T14:35:53.972Z,1.60
2023-04-09T14:38:20.688Z,1.20
2023-04-09T14:40:47.398Z,1.60
2023-04-09T14:43:14.023Z,1.40
2023-04-09T14:45:40.959Z,1.38
2023-04-09T14:48:08.023Z,1.60
2023-04-09T14:50:36.589Z,1.65
2023-04-09T14:53:04.073Z,1.58
2023-04-09T14:55:30.890Z,1.48
2023-04-09T14:57:58.538Z,1.40
2023-04-09T15:00:25.363Z,1.48
2023-04-09T15:02:52.076Z,1.45
2023-04-09T15:05:18.930Z,1.60
2023-04-09T15:07:45.594Z,1.67
2023-04-09T15:10:12.395Z,1.58
2023-04-09T15:12:39.066Z,1.50
2023-04-09T15:15:07.184Z,1.70
2023-04-09T15:17:33.868Z,1.65
2023-04-09T15:20:00.720Z,1.45
2023-04-09T15:22:27.365Z,1.83
2023-04-09T15:24:54.119Z,1.40
2023-04-09T15:27:20.872Z,1.45
2023-04-09T15:29:47.499Z,1.50
2023-04-09T15:32:14.098Z,1.60
2023-04-09T15:34:40.661Z,1.60
2023-04-09T15:37:07.309Z,1.60
2023-04-09T15:39:34.998Z,1.70
2023-04-09T15:42:02.022Z,1.70
2023-04-09T15:44:28.852Z,1.20
2023-04-09T15:46:55.977Z,1.58
2023-04-09T15:49:23.351Z,1.42
2023-04-09T15:51:49.973Z,1.40
2023-04-09T15:54:16.627Z,1.50
2023-04-09T15:56:43.220Z,1.70
2023-04-09T15:59:09.889Z,1.50
2023-04-09T16:01:36.766Z,1.55
2023-04-09T16:04:04.571Z,1.67
2023-04-09T16:06:31.814Z,1.52
2023-04-09T16:08:58.745Z,1.33
2023-04-09T16:11:25.839Z,1.67
2023-04-09T16:13:52.480Z,1.70
2023-04-09T16:16:19.348Z,1.60
2023-04-09T16:18:46.033Z,1.52
2023-04-09T16:21:12.662Z,1.60
2023-04-09T16:23:39.833Z,1.40
2023-04-09T16:26:06.953Z,1.50
2023-04-09T16:28:33.600Z,1.67
2023-04-09T16:31:00.390Z,1.60
2023-04-09T16:33:27.087Z,1.70
2023-04-09T16:35:53.864Z,1.60
2023-04-09T16:38:20.606Z,1.42
2023-04-09T16:40:47.359Z,1.40
2023-04-09T16:43:14.035Z,1.70
2023-04-09T16:45:40.662Z,1.60
2023-04-09T16:48:12.002Z,1.35
2023-04-09T16:50:42.804Z,1.80
2023-04-09T16:53:09.811Z,1.40
2023-04-09T16:55:36.621Z,1.60
2023-04-09T16:58:03.334Z,1.67
2023-04-09T17:00:29.983Z,1.88
2023-04-09T17:02:57.796Z,1.67
2023-04-09T17:05:24.960Z,1.60
2023-04-09T17:07:53.410Z,1.80
2023-04-09T17:10:20.770Z,1.73
2023-04-09T17:12:48.291Z,1.40
2023-04-09T17:15:15.171Z,1.40
2023-04-09T17:17:43.531Z,1.73
2023-04-09T17:20:11.222Z,1.50
2023-04-09T17:22:39.129Z,1.67
2023-04-09T17:25:06.171Z,1.80
2023-04-09T17:27:32.740Z,1.60
2023-04-09T17:29:59.304Z,1.38
2023-04-09T17:32:25.970Z,1.40
2023-04-09T17:34:52.747Z,1.60
2023-04-09T17:37:19.527Z,1.70
2023-04-09T17:39:46.349Z,1.77
2023-04-09T17:42:13.017Z,1.50
2023-04-09T17:44:39.611Z,1.83
2023-04-09T17:47:07.400Z,1.63
2023-04-09T17:49:34.300Z,1.80
2023-04-09T17:52:01.229Z,1.58
2023-04-09T17:54:33.412Z,1.83
2023-04-09T17:59:27.881Z,1.60
2023-04-09T18:01:55.214Z,1.75
2023-04-09T18:04:23.480Z,1.90
2023-04-09T18:06:50.797Z,1.70
2023-04-09T18:09:17.593Z,1.80
2023-04-09T18:11:44.619Z,1.38
2023-04-09T18:14:11.661Z,1.67
2023-04-09T18:16:39.360Z,1.75
2023-04-09T18:19:07.148Z,1.83
2023-04-09T18:21:37.738Z,1.80
2023-04-09T18:24:04.948Z,1.60
2023-04-09T18:26:33.624Z,1.48
2023-04-09T18:29:01.437Z,1.73
2023-04-09T18:31:28.599Z,1.80
2023-04-09T18:33:56.098Z,1.63
2023-04-09T18:36:22.738Z,1.45
2023-04-09T18:38:49.321Z,1.65
2023-04-09T18:41:23.032Z,1.75
2023-04-09T18:43:49.636Z,1.75
2023-04-09T18:46:16.311Z,1.33
2023-04-09T18:48:43.898Z,1.70
2023-04-09T18:51:11.184Z,1.95
2023-04-09T18:53:37.786Z,1.70
2023-04-09T18:56:04.649Z,2.08
2023-04-09T18:58:31.281Z,2.25
2023-04-09T19:00:58.640Z,2.08
2023-04-09T19:03:26.651Z,2.10
2023-04-09T19:05:54.507Z,1.95
2023-04-09T19:08:22.144Z,2.47
2023-04-09T19:10:49.159Z,2.25
2023-04-09T19:13:16.877Z,2.30
2023-04-09T19:15:43.523Z,2.20
2023-04-09T19:18:10.346Z,2.05
2023-04-09T19:20:37.580Z,2.53
2023-04-09T19:23:04.260Z,2.03
2023-04-09T19:25:31.310Z,2.50
2023-04-09T19:27:57.964Z,2.55
2023-04-09T19:30:24.696Z,2.47
2023-04-09T19:32:52.023Z,2.15
2023-04-09T19:35:18.814Z,2.28
2023-04-09T19:37:45.599Z,2.10
2023-04-09T19:40:15.412Z,1.73
2023-04-09T19:42:42.177Z,2.08
2023-04-09T19:45:09.284Z,1.90
2023-04-09T19:47:36.464Z,1.63
2023-04-09T19:50:03.150Z,1.80
2023-04-09T19:52:29.811Z,2.25
2023-04-09T19:54:57.019Z,1.90
2023-04-09T19:57:23.675Z,2.00
2023-04-09T19:59:52.081Z,1.80
2023-04-09T20:02:18.844Z,2.08
2023-04-09T20:04:45.714Z,2.00
2023-04-09T20:07:12.422Z,2.15
2023-04-09T20:09:41.367Z,2.13
2023-04-09T20:12:11.689Z,2.00
2023-04-09T20:14:39.131Z,1.98
2023-04-09T20:17:08.658Z,1.98
2023-04-09T20:19:36.031Z,2.20
2023-04-09T20:22:02.846Z,2.28
2023-04-09T20:24:29.428Z,2.13
2023-04-09T20:26:56.129Z,2.28
2023-04-09T20:29:22.878Z,2.03
2023-04-09T20:31:49.492Z,2.00
2023-04-09T20:34:16.199Z,1.98
2023-04-09T20:36:43.782Z,2.35
2023-04-09T20:39:11.486Z,2.00
2023-04-09T20:41:38.429Z,1.98
2023-04-09T20:44:05.777Z,1.80
2023-04-09T20:46:32.348Z,1.92
2023-04-09T20:48:58.970Z,2.20
2023-04-09T20:51:25.602Z,2.08
2023-04-09T20:53:52.198Z,2.30
2023-04-09T20:56:19.069Z,2.00
2023-04-09T20:58:45.652Z,2.20
2023-04-09T21:01:12.309Z,2.00
2023-04-09T21:03:40.176Z,1.98
2023-04-09T21:06:08.137Z,2.30
2023-04-09T21:08:35.148Z,2.20
2023-04-09T21:11:02.227Z,1.88
2023-04-09T21:13:28.964Z,2.20
2023-04-09T21:15:57.039Z,2.50
2023-04-09T21:18:23.981Z,2.60
2023-04-09T21:20:50.822Z,2.50
2023-04-09T21:23:17.494Z,2.10
2023-04-09T21:25:44.096Z,2.00
2023-04-09T21:28:11.485Z,2.40
2023-04-09T21:30:38.320Z,1.90
2023-04-09T21:33:06.851Z,2.10
2023-04-09T21:35:34.203Z,2.60
2023-04-09T21:38:02.768Z,2.78
2023-04-09T21:40:30.105Z,2.67
2023-04-09T21:42:57.757Z,2.45
2023-04-09T21:45:24.613Z,2.25
2023-04-09T21:47:51.726Z,2.00
2023-04-09T21:50:18.449Z,2.58
2023-04-09T21:52:46.063Z,2.50
2023-04-09T21:55:12.769Z,2.58
2023-04-09T21:57:39.577Z,2.67
2023-04-09T22:00:06.829Z,2.03
2023-04-09T22:02:33.544Z,2.35
2023-04-09T22:05:00.909Z,2.50
2023-04-09T22:07:27.719Z,2.10
2023-04-09T22:09:55.441Z,2.35
2023-04-09T22:12:22.086Z,2.67
2023-04-09T22:14:48.651Z,2.35
2023-04-09T22:17:15.850Z,2.40
2023-04-09T22:19:42.530Z,2.60
2023-04-09T22:22:12.046Z,2.53
2023-04-09T22:24:39.276Z,2.50
2023-04-09T22:27:06.129Z,2.40
2023-04-09T22:29:33.733Z,2.17
2023-04-09T22:32:00.447Z,2.83
2023-04-09T22:34:27.226Z,2.45
2023-04-09T22:36:53.868Z,2.45
2023-04-09T22:39:21.360Z,2.60
2023-04-09T22:41:48.015Z,2.60
2023-04-09T22:44:14.591Z,3.03
2023-04-09T22:46:41.347Z,2.75
2023-04-09T22:49:08.934Z,2.70
2023-04-09T22:51:35.777Z,2.45
2023-04-09T22:54:02.646Z,2.85
2023-04-09T22:56:31.585Z,2.70
2023-04-09T22:58:58.328Z,2.67
2023-04-09T23:01:25.190Z,2.83
2023-04-09T23:03:51.880Z,2.80
2023-04-09T23:06:18.590Z,2.70
2023-04-09T23:08:45.608Z,2.60
2023-04-09T23:11:12.231Z,2.50
2023-04-09T23:13:38.957Z,2.38
2023-04-09T23:16:07.492Z,2.53
2023-04-09T23:18:35.304Z,2.58
2023-04-09T23:21:09.125Z,2.78
2023-04-09T23:23:36.832Z,2.80
2023-04-09T23:26:04.146Z,2.60
2023-04-09T23:28:31.187Z,2.78
2023-04-09T23:30:57.858Z,2.42
2023-04-09T23:33:24.504Z,2.95
2023-04-09T23:35:51.293Z,2.80
2023-04-09T23:38:18.011Z,2.65
2023-04-09T23:40:44.611Z,2.67
2023-04-09T23:43:11.380Z,2.85
2023-04-09T23:45:38.191Z,3.00
2023-04-09T23:48:07.361Z,2.97
2023-04-09T23:50:34.078Z,2.70
2023-04-09T23:53:03.418Z,3.13
2023-04-09T23:55:30.290Z,3.08
2023-04-09T23:57:56.937Z,3.00
